LiveATC.Net - Listen to live air traffic control over the Internet! Contact LiveATC.net for advertising information

Find LiveATC Audio Streams


Airport/ARTCC Code

Frequency
(e.g., 124.400, 128.75)
Site-wide search

Browse LiveATC Feeds
LiveATC Coverage Map
Top 50 LiveATC Feeds
Bad Weather Areas

LiveATC FAQ
Offer a LiveATC Feed
Contact LiveATC.net
Press Inquiries

LiveATC on iPhone
LiveATC on Android

Windows Phone
Windows 8/10

LiveATC Mobile
(Mobile browser)

ATC Audio Archives
Interesting Recordings

LiveATC Forums

Home Page
About LiveATC.net
Make a Donation
LiveATC Store

Terms of Use
Privacy Policy

Canadian Air Freqs

AIRMETs/SIGMETs

FAA Airport Status
Nat'l Airspace Status
Arrival Demand Charts


Server Software By:
Icecast.org
Liquidsoap


Current Potentially Bad Weather Airports
(updated every 30 minutes - sorted alphabetically by ICAO code)



This page lists LiveATC.net airport areas that may be interesting to listen to because of challenging flying (weather) conditions. Challenging weather conditions include low ceilings, limited visibility, high or gusty winds, or thunderstorms.

Updated: Sat Feb 13 21:10:02 UTC 2016
Click on airport name to go to that airport area's feeds.

CYRQ/CSR3 CTAF/UNICOMTrois Rivieres Airport
WX MAP UNAVAILABLENearest METAR:
CYRQ 132040Z AUTO 29007G15KT 270V330 9SM -SN BKN036 OVC043 M21/M26 A3007 RMK SLP190
CYYT Gnd/Twr/Gander CenterSt. John's International Airport
WX MAP UNAVAILABLENearest METAR:
CYYT 132023Z 07021G31KT 1/4SM R29/P6000FT/N +SN BLSN VV001 M03/M04 A2955 RMK SN8 PRESFR SLP016
CYZF Ground/TowerYellowknife Airport
WX MAP UNAVAILABLENearest METAR:
CYZF 132000Z 01004KT 4SM -SN BKN007 OVC013 M13/M14 A2960 RMK SF6SC2 SLP046
EHEH Gnd/Twr/AppEindhoven Airport
WX MAP UNAVAILABLENearest METAR:
EHEH 132025Z AUTO 05009KT 030V090 6000 -DZ SCT005 OVC006 03/02 Q0983 YLO 08010KT 8000 -RADZ SCT008 BKN010 OVC012 TEMPO 3000 DZ SCT005 BKN007 OVC010
ENVA Gnd/Twr/AppVaernes Airport
WX MAP UNAVAILABLENearest METAR:
ENVA 132050Z 15005KT 9999 -SN FEW003 SCT012 BKN070 M07/M09 Q0999 RMK WIND 670FT 16008KT
EYVI Twr/App/MiscVilnius International Airport
WX MAP UNAVAILABLENearest METAR:
EYVI 132050Z 14012KT 1200 R20/P2000N SNRA OVC005 00/M00 Q1000 R20/2///95 TEMPO 0800 +SNRA
KACY Twr/App/MilAtlantic City International Airport
kacyNearest METAR:
KACY 132054Z 29020G35KT 10SM OVC055 M06/M21 A3018 RMK AO2 PK WND 28035/2052 SLP219 T10611211 53022
KALB Gnd/Twr/ApproachAlbany International Airport
kalbNearest METAR:
KALB 132051Z 32021G35KT 10SM FEW035 BKN040 M17/M27 A3018 RMK AO2 PK WND 30035/2046 SLP227 VIRGA ALQDS BKN V SCT T11721267 53023
KASH TowerBoire Field Airport
kashNearest METAR:
KASH 132055Z 29020KT 10SM FEW047 OVC060 M11/M23 A2993 RMK AO2 SLP300 52030 PWINO FZRANO RVRNO
KBAF Ground/TowerBarnes Municipal Airport
kbafNearest METAR:
KBAF 132053Z 30022G30KT 9SM CLR M16/M26 A3008 RMK AO2 PK WND 31035/2030 SLP198 T11561256 53040
KBDR Del/Gnd/Twr/AppIgor I Sikorsky Memorial Airport
kbdrNearest METAR:
KBDR 132052Z AUTO 31023G34KT 10SM CLR M10/M24 A3008 RMK AO2 PK WND 30034/2047 SLP185 60000 T11001239 53030 TSNO
KBGR Del/Gnd/TwrBangor International Airport
kbgrNearest METAR:
KBGR 132053Z 31015KT 3/4SM R15/5000VP6000FT -SN VV017 M11/M13 A2980 RMK AO2 SLP096 VIS 3/4V1 P0001 60001 T11061133 51016
KBJC Ground/Tower #2Rocky Mountain Metropolitan Airport
kbjcNearest METAR:
KBJC 132045Z 27024G30KT 30SM FEW070 SCT150 19/M13 A2996
KBLM/N12/3N6/KMJXOld Bridge Airport
kblmNearest METAR:
KBLM 132055Z AUTO 30020G31KT 10SM FEW050 SCT060 M08/M22 A3013 RMK AO1 52024
KBOS App (North/Rockport)General Edward Lawrence Logan International Airport
kbosNearest METAR:
KBOS 132054Z 27021G31KT 10SM FEW070 M09/M23 A2991 RMK AO2 PK WND 27031/2052 SLP129 VIRGA NW-E T10891233 53027
KBTL/KAZO Gnd/Twr/AppKalamazoo/Battle Creek International Airport
kazoNearest METAR:
KAZO 132053Z 33012KT 4SM -SN SCT024 BKN029 OVC039 M10/M14 A3045 RMK AO2 SLP335 P0000 60000 T11001144 55002
KBUF Tower/AppBuffalo Niagara International Airport
kbufNearest METAR:
KBUF 132054Z 27009KT 8SM -SN BKN035 BKN044 M17/M22 A3031 RMK AO2 SNE11B54 SLP284 P0000 60000 T11671217 55004
KCAK Del/Gnd/Twr/AppAkron-Canton Regional Airport
kcakNearest METAR:
KCAK 132051Z 29012G19KT 2SM -SN FEW020 BKN028 BKN041 M13/M18 A3038 RMK AO2 SFC VIS 4 SLP314 P0000 60001 T11281178 55001 $
KCLE App/DepCleveland-Hopkins International Airport
kcleNearest METAR:
KCLE 132051Z 30013KT 9SM -SN FEW026 BKN040 BKN047 M11/M17 A3045 RMK AO2 SLP328 P0000 60000 T11061172 56001 $
KCLM Del/CTAF/AppWilliam R Fairchild International Airport
kclmNearest METAR:
KCLM 132053Z AUTO 29004KT 2 1/2SM -RA BR FEW005 OVC042 07/06 A3013 RMK AO2 RAB07 SLP206 P0002 60002 T00720056 56019
KCPR Tower/AppCasper/Natrona County International Airport
kcprNearest METAR:
KCPR 132053Z 21028G40KT 10SM CLR 09/M05 A2987 RMK AO2 PK WND 21040/2044 RAB28E44B46E52 SLP101 P0000 60000 T00891050 58035
KDCA Tower/ApproachRonald Reagan Washington National Airport
kdcaNearest METAR:
KDCA 132052Z 32021G31KT 10SM BKN065 M06/M21 A3031 RMK AO2 PK WND 33031/2050 SLP264 VIRGA ALQDS T10611211 53008
KDTW Twr/AppDetroit Metropolitan Wayne County Airport
kdtwNearest METAR:
KDTW 132053Z 33009KT 3SM -SN SCT032 BKN040 BKN060 M09/M14 A3044 RMK AO2 SFC VIS 6 SLP322 P0000 60000 T10941144 51002
KESN Gnd/TwrEaston/Newnam Field Airport
kesnNearest METAR:
KESN 132050Z 32020G35KT 10SM BKN050 M06/M18 A3031
NY Departure (Liberty South)Newark Liberty International Airport
kewrNearest METAR:
KEWR 132051Z 30022G34KT 10SM SCT065 M09/M27 A3017 RMK AO2 PK WND 31036/2013 SLP214 T10891267 53029 $
KFSD Twr/App/Dep/ZMPJoe Foss Field Airport
kfsdNearest METAR:
KFSD 132056Z 15015KT 9SM -SN OVC030 M13/M18 A3030 RMK AO2 SNB28 SLP299 P0000 60000 T11281183 56026
KHEF Del/Gnd/TwrManassas Regional Airport/Harry P. Davis Field
khefNearest METAR:
KHEF 132055Z 33020G30KT 10SM FEW060 M06/M19 A3032
KHPN ATISWestchester County Airport
khpnNearest METAR:
KHPN 132056Z 29022G33KT 10SM FEW060 M12/M26 A3010 RMK AO2 PK WND 33037/2001 SLP206 T11171256 53030
KHYA/KFMH Twr/Cape AppCape Cod Coast Guard Air Station
kfmhNearest METAR:
KFMH 132055Z AUTO 29020G30KT 8SM CLR M08/M20 A2989 RMK AO2
KISP (NY Approach)Long Island Mac Arthur Airport
kispNearest METAR:
KISP 132056Z 30025G38KT 9SM FEW042 SCT060 M09/M23 A3008 RMK AO2 PK WND 30041/2018 SLP187 VIRGA ALQDS T10941233 53028
KJAC Gnd/Twr/App (ZLC)Jackson Hole Airport
kjacNearest METAR:
KJAC 132051Z 22020G40KT 10SM VCSH FEW036 BKN060 02/M07 A3009
KJFK NY App (CAMRN)John F Kennedy International Airport
kjfkNearest METAR:
KJFK 132051Z 29022G32KT 10SM R04R/6000VP6000FT SCT060 M08/M26 A3015 RMK AO2 PK WND 31041/2002 SLP209 VIRGA ALQDS T10781256 53028 $
KLBE Ground/TowerArnold Palmer Regional Airport
klbeNearest METAR:
KLBE 132047Z 33015G25KT 2SM -SN BKN030 M13/M17 A3033
KLGA NY Approach (EMPYR)LaGuardia Airport
klgaNearest METAR:
KLGA 132051Z 31028G36KT 10SM FEW070 M08/M20 A3015 RMK AO2 PK WND 32036/2051 SLP209 T10831200 53029 $
KLNS TowerLancaster Airport
klnsNearest METAR:
KLNS 132053Z 31020G31KT 8SM BKN045 BKN055 M11/M19 A3024 RMK AO2 PK WND 29033/2024 UPB17E21 SLP249 P0000 60000 T11061189 53020
KNGU Del/Gnd/Twr/App/ZDCNorfolk Naval Station (Chambers Field)
knguNearest METAR:
KNGU 132059Z 30022G30KT 10SM SCT070 00/M19 A3026 RMK AO2 PK WND 32031/2001 SLP246 T00001194 53004
KOGD Ogden Ground/TowerOgden-Hinckley Airport
kogdNearest METAR:
KOGD 132053Z 00000KT 2 1/2SM BR OVC007 M01/M02 A3031 RMK AO2 SLP285 T10111022 57010
KORH Ground/Tower/AppWorcester Regional Airport
korhNearest METAR:
KORH 132054Z 28021G30KT 9SM CLR M15/M26 A2990 RMK AO2 PK WND 27034/2001 SLP146 T11501261 53028
KPIT Gnd/Twr/AppPittsburgh International Airport
kpitNearest METAR:
KPIT 132051Z 30021G30KT 1 1/2SM -SN SCT029 BKN040 OVC060 M12/M17 A3034 RMK AO2 PK WND 31030/2042 SFC VIS 4 SNE24B41 SLP306 P0000 60000 T11171172 53004
KPVU TowerProvo Municipal Airport
kpvuNearest METAR:
KPVU 132047Z 00000KT 1/2SM FZFG OVC003 M03/M04 A3031
KROC Tower/ApproachGreater Rochester International Airport
krocNearest METAR:
KROC 132054Z 29014KT 6SM -SN BKN039 OVC048 M17/M24 A3031 RMK AO2 SLP281 DRSN P0000 60000 T11721239 53001
KSLC Approach/DepartureSalt Lake City International Airport
kslcNearest METAR:
KSLC 132054Z 32004KT 2SM BR OVC007 M01/M02 A3033 RMK AO2 SFC VIS 3 SLP289 T10061022 57006
KSWF Ground/TowerStewart International Airport
kswfNearest METAR:
KSWF 132045Z 30024G36KT 20SM FEW050 M14/M26 A3014
KSYR Tower/ApproachSyracuse Hancock International Airport
ksyrNearest METAR:
KSYR 132054Z 29012G22KT 1/2SM R28/3000V4000FT SN BLSN BKN012 OVC020 M19/M21 A3025 RMK AO2 SLP251 P0001 60001 T11891211 51005 $
KTVC Gnd/Twr/ZMPCherry Capital Airport
ktvcNearest METAR:
KTVC 132053Z 00000KT 1/2SM SN OVC012 M12/M14 A3042 RMK AO2 TWR VIS 1 SLP317 P0000 60000 T11171144 55005 $
LFPO Tower/ApproachParis Orly Airport
WX MAP UNAVAILABLENearest METAR:
LFPO 132030Z 27015KT 9999 -RA BKN015 BKN023 08/06 Q0984 TEMPO 27020G35KT RA BKN014TCU
LUKK Gnd/Twr/App/ACCChisinau International Airport
WX MAP UNAVAILABLENearest METAR:
LUKK 132100Z 09008KT 0200 R08/0450V0800D -SHRA FG VV000 05/04 Q0997 RESHRA R08/290299 TEMPO 0200 FG VV000
LZKZ Gnd/Twr/AppKosice International Airport
WX MAP UNAVAILABLENearest METAR:
LZKZ 132100Z VRB02KT 2500 -DZ BR OVC003 03/02 Q0994
PASC CTAF/Unicom/AFIS/AppDeadhorse Airport
WX MAP UNAVAILABLENearest METAR:
PASC 132053Z 07033KT 1/4SM R05/2000V2200FT FZFG BLSN VV006 M17/M19 A2965 RMK AO2 PK WND 07042/2025 SLP042 6//// T11721194 56000 PNO $
RJTT App/DepTokyo International Airport
WX MAP UNAVAILABLENearest METAR:
RJTT 132048Z 20021G31KT 6000 R34L///// R22/P1800N R16L/1200VP1800U R23/P1800N SHRA FEW007 BKN009 BKN012 17/16 Q1003 RMK 1CU007 5CU009 7CU012 A2962
SAZS Tower/ApproachSan Carlos de Bariloche Airport
WX MAP UNAVAILABLENearest METAR:
SAZS 132000Z 32022G33KT 9999 BKN030 13/04 Q1015
TNCA Twr/Apron/FIRReina Beatrix International Airport
WX MAP UNAVAILABLENearest METAR:
TNCA 131900Z 08021G32KT 7000 HZ FEW025 30/21 Q1010 NOSIG
UKLL Twr/App/RadarLviv International Airport
WX MAP UNAVAILABLENearest METAR:
UKLL 132100Z 15003MPS 120V180 9999 -DZ OVC005 04/04 Q0994 13190070 NOSIG
USCC Gnd/Twr/App/ControlChelyabinsk Airport
WX MAP UNAVAILABLENearest METAR:
USCC 132030Z 10001MPS 2600 BR FU BKN026 M07/M08 Q1034 R09/190050 TEMPO 0300 FZFG VV002 RMK QFE755